sensor_id;sensor_type;location;lat;lon;timestamp;P1;durP1;ratioP1;P2;durP2;ratioP2
62037;SDS011;47991;42.974;12.082;2022-12-07T00:01:18;14.30;;;8.80;;
62037;SDS011;47991;42.974;12.082;2022-12-07T00:03:47;11.00;;;6.10;;
62037;SDS011;47991;42.974;12.082;2022-12-07T00:06:16;18.20;;;5.80;;
62037;SDS011;47991;42.974;12.082;2022-12-07T00:08:43;14.40;;;5.40;;
62037;SDS011;47991;42.974;12.082;2022-12-07T00:11:12;15.60;;;6.20;;
62037;SDS011;47991;42.974;12.082;2022-12-07T00:13:40;10.40;;;5.20;;
62037;SDS011;47991;42.974;12.082;2022-12-07T00:16:09;12.10;;;5.10;;
62037;SDS011;47991;42.974;12.082;2022-12-07T00:18:38;16.30;;;5.10;;
62037;SDS011;47991;42.974;12.082;2022-12-07T00:21:08;13.30;;;4.70;;
62037;SDS011;47991;42.974;12.082;2022-12-07T00:23:46;12.10;;;5.30;;
62037;SDS011;47991;42.974;12.082;2022-12-07T00:26:16;8.90;;;5.30;;
62037;SDS011;47991;42.974;12.082;2022-12-07T00:28:48;18.70;;;5.30;;
62037;SDS011;47991;42.974;12.082;2022-12-07T00:31:17;15.20;;;5.30;;
62037;SDS011;47991;42.974;12.082;2022-12-07T00:33:45;13.90;;;5.30;;
62037;SDS011;47991;42.974;12.082;2022-12-07T00:36:14;15.50;;;5.30;;
62037;SDS011;47991;42.974;12.082;2022-12-07T00:41:13;9.30;;;5.30;;
62037;SDS011;47991;42.974;12.082;2022-12-07T00:43:45;17.10;;;7.00;;
62037;SDS011;47991;42.974;12.082;2022-12-07T00:46:13;12.40;;;6.10;;
62037;SDS011;47991;42.974;12.082;2022-12-07T00:48:41;16.10;;;6.50;;
62037;SDS011;47991;42.974;12.082;2022-12-07T00:51:09;16.40;;;7.50;;
62037;SDS011;47991;42.974;12.082;2022-12-07T00:53:37;19.10;;;6.10;;
62037;SDS011;47991;42.974;12.082;2022-12-07T00:56:23;12.70;;;6.60;;
62037;SDS011;47991;42.974;12.082;2022-12-07T00:58:53;15.50;;;6.70;;
62037;SDS011;47991;42.974;12.082;2022-12-07T01:01:25;15.60;;;8.10;;
62037;SDS011;47991;42.974;12.082;2022-12-07T01:03:56;16.10;;;8.90;;
62037;SDS011;47991;42.974;12.082;2022-12-07T01:06:23;17.10;;;8.60;;
62037;SDS011;47991;42.974;12.082;2022-12-07T01:08:51;19.20;;;9.40;;
62037;SDS011;47991;42.974;12.082;2022-12-07T01:11:19;13.70;;;8.90;;
62037;SDS011;47991;42.974;12.082;2022-12-07T01:13:51;15.80;;;9.90;;
62037;SDS011;47991;42.974;12.082;2022-12-07T01:16:21;13.60;;;7.60;;
62037;SDS011;47991;42.974;12.082;2022-12-07T01:18:50;16.50;;;7.70;;
62037;SDS011;47991;42.974;12.082;2022-12-07T01:21:22;11.90;;;7.30;;
62037;SDS011;47991;42.974;12.082;2022-12-07T01:23:51;12.80;;;9.70;;
62037;SDS011;47991;42.974;12.082;2022-12-07T01:26:19;18.40;;;13.10;;
62037;SDS011;47991;42.974;12.082;2022-12-07T01:28:49;14.80;;;10.20;;
62037;SDS011;47991;42.974;12.082;2022-12-07T01:31:18;13.80;;;9.00;;
62037;SDS011;47991;42.974;12.082;2022-12-07T01:33:47;15.80;;;7.70;;
62037;SDS011;47991;42.974;12.082;2022-12-07T01:36:19;15.10;;;6.80;;
62037;SDS011;47991;42.974;12.082;2022-12-07T01:38:56;18.50;;;5.60;;
62037;SDS011;47991;42.974;12.082;2022-12-07T01:41:26;15.10;;;5.50;;
62037;SDS011;47991;42.974;12.082;2022-12-07T01:46:47;14.20;;;7.30;;
62037;SDS011;47991;42.974;12.082;2022-12-07T01:52:00;13.70;;;9.20;;
62037;SDS011;47991;42.974;12.082;2022-12-07T01:54:49;15.40;;;11.40;;
62037;SDS011;47991;42.974;12.082;2022-12-07T01:57:18;17.20;;;12.00;;
62037;SDS011;47991;42.974;12.082;2022-12-07T01:59:46;16.10;;;11.20;;
62037;SDS011;47991;42.974;12.082;2022-12-07T02:03:18;15.50;;;11.30;;
62037;SDS011;47991;42.974;12.082;2022-12-07T02:05:20;15.80;;;10.40;;
62037;SDS011;47991;42.974;12.082;2022-12-07T02:07:49;17.60;;;12.20;;
62037;SDS011;47991;42.974;12.082;2022-12-07T02:10:21;15.60;;;11.00;;
62037;SDS011;47991;42.974;12.082;2022-12-07T02:12:57;15.60;;;12.20;;
62037;SDS011;47991;42.974;12.082;2022-12-07T02:15:38;17.00;;;13.60;;
62037;SDS011;47991;42.974;12.082;2022-12-07T02:18:16;17.20;;;12.80;;
62037;SDS011;47991;42.974;12.082;2022-12-07T02:20:52;18.10;;;13.40;;
62037;SDS011;47991;42.974;12.082;2022-12-07T02:23:53;16.90;;;12.60;;
62037;SDS011;47991;42.974;12.082;2022-12-07T02:32:38;15.00;;;11.50;;
62037;SDS011;47991;42.974;12.082;2022-12-07T02:37:34;18.20;;;13.80;;
62037;SDS011;47991;42.974;12.082;2022-12-07T02:40:51;18.70;;;13.90;;
62037;SDS011;47991;42.974;12.082;2022-12-07T02:42:51;16.80;;;13.20;;
62037;SDS011;47991;42.974;12.082;2022-12-07T02:45:24;19.30;;;14.50;;
62037;SDS011;47991;42.974;12.082;2022-12-07T02:47:55;19.50;;;14.10;;
62037;SDS011;47991;42.974;12.082;2022-12-07T02:50:24;17.90;;;13.30;;
62037;SDS011;47991;42.974;12.082;2022-12-07T02:52:52;17.90;;;14.00;;
62037;SDS011;47991;42.974;12.082;2022-12-07T02:55:19;14.90;;;11.60;;
62037;SDS011;47991;42.974;12.082;2022-12-07T02:58:11;14.10;;;11.40;;
62037;SDS011;47991;42.974;12.082;2022-12-07T03:03:43;16.50;;;12.00;;
62037;SDS011;47991;42.974;12.082;2022-12-07T03:06:20;17.70;;;13.00;;
62037;SDS011;47991;42.974;12.082;2022-12-07T03:12:20;17.40;;;14.10;;
62037;SDS011;47991;42.974;12.082;2022-12-07T03:15:11;17.50;;;14.20;;
62037;SDS011;47991;42.974;12.082;2022-12-07T03:17:49;22.10;;;14.20;;
62037;SDS011;47991;42.974;12.082;2022-12-07T03:20:18;24.70;;;15.20;;
62037;SDS011;47991;42.974;12.082;2022-12-07T03:25:15;19.70;;;14.10;;
62037;SDS011;47991;42.974;12.082;2022-12-07T03:27:50;20.00;;;14.90;;
62037;SDS011;47991;42.974;12.082;2022-12-07T03:30:24;18.10;;;13.40;;
62037;SDS011;47991;42.974;12.082;2022-12-07T03:33:02;15.90;;;13.20;;
62037;SDS011;47991;42.974;12.082;2022-12-07T03:35:45;17.20;;;12.60;;
62037;SDS011;47991;42.974;12.082;2022-12-07T03:38:38;17.00;;;13.40;;
62037;SDS011;47991;42.974;12.082;2022-12-07T03:41:14;16.70;;;12.00;;
62037;SDS011;47991;42.974;12.082;2022-12-07T03:43:49;17.30;;;13.50;;
62037;SDS011;47991;42.974;12.082;2022-12-07T03:46:21;17.60;;;13.80;;
62037;SDS011;47991;42.974;12.082;2022-12-07T03:54:33;21.10;;;15.20;;
62037;SDS011;47991;42.974;12.082;2022-12-07T03:57:06;19.50;;;14.90;;
62037;SDS011;47991;42.974;12.082;2022-12-07T03:59:35;19.80;;;15.00;;
62037;SDS011;47991;42.974;12.082;2022-12-07T04:02:04;19.90;;;15.30;;
62037;SDS011;47991;42.974;12.082;2022-12-07T04:04:32;18.20;;;14.50;;
62037;SDS011;47991;42.974;12.082;2022-12-07T04:07:00;21.80;;;15.70;;
62037;SDS011;47991;42.974;12.082;2022-12-07T04:09:27;20.50;;;14.40;;
62037;SDS011;47991;42.974;12.082;2022-12-07T04:11:53;17.80;;;12.90;;
62037;SDS011;47991;42.974;12.082;2022-12-07T04:14:20;17.60;;;12.90;;
62037;SDS011;47991;42.974;12.082;2022-12-07T04:16:47;18.70;;;14.20;;
62037;SDS011;47991;42.974;12.082;2022-12-07T04:19:15;18.60;;;15.10;;
62037;SDS011;47991;42.974;12.082;2022-12-07T04:21:44;23.10;;;16.00;;
62037;SDS011;47991;42.974;12.082;2022-12-07T04:24:12;22.70;;;16.40;;
62037;SDS011;47991;42.974;12.082;2022-12-07T04:26:40;20.90;;;14.70;;
62037;SDS011;47991;42.974;12.082;2022-12-07T04:29:07;22.40;;;16.50;;
62037;SDS011;47991;42.974;12.082;2022-12-07T04:31:35;20.00;;;16.00;;
62037;SDS011;47991;42.974;12.082;2022-12-07T04:34:03;19.90;;;15.30;;
62037;SDS011;47991;42.974;12.082;2022-12-07T04:36:31;19.50;;;15.70;;
62037;SDS011;47991;42.974;12.082;2022-12-07T04:38:58;21.90;;;16.60;;
62037;SDS011;47991;42.974;12.082;2022-12-07T04:41:26;23.50;;;17.00;;
62037;SDS011;47991;42.974;12.082;2022-12-07T04:43:56;22.10;;;16.60;;
62037;SDS011;47991;42.974;12.082;2022-12-07T04:46:26;23.90;;;17.40;;
62037;SDS011;47991;42.974;12.082;2022-12-07T04:48:54;22.20;;;17.00;;
62037;SDS011;47991;42.974;12.082;2022-12-07T04:51:22;19.80;;;14.00;;
62037;SDS011;47991;42.974;12.082;2022-12-07T04:53:51;22.20;;;16.40;;
62037;SDS011;47991;42.974;12.082;2022-12-07T04:56:18;20.20;;;16.50;;
62037;SDS011;47991;42.974;12.082;2022-12-07T04:58:46;22.10;;;17.10;;
62037;SDS011;47991;42.974;12.082;2022-12-07T05:01:14;22.80;;;17.00;;
62037;SDS011;47991;42.974;12.082;2022-12-07T05:03:42;21.00;;;16.50;;
62037;SDS011;47991;42.974;12.082;2022-12-07T05:06:09;22.70;;;16.10;;
62037;SDS011;47991;42.974;12.082;2022-12-07T05:08:36;21.00;;;16.20;;
62037;SDS011;47991;42.974;12.082;2022-12-07T05:11:03;21.20;;;16.50;;
62037;SDS011;47991;42.974;12.082;2022-12-07T05:13:32;22.60;;;17.30;;
62037;SDS011;47991;42.974;12.082;2022-12-07T05:15:59;24.80;;;17.50;;
62037;SDS011;47991;42.974;12.082;2022-12-07T05:18:26;24.20;;;17.00;;
62037;SDS011;47991;42.974;12.082;2022-12-07T05:20:52;23.00;;;17.40;;
62037;SDS011;47991;42.974;12.082;2022-12-07T05:23:19;22.20;;;16.40;;
62037;SDS011;47991;42.974;12.082;2022-12-07T05:25:46;22.80;;;15.40;;
62037;SDS011;47991;42.974;12.082;2022-12-07T05:28:13;24.90;;;17.30;;
62037;SDS011;47991;42.974;12.082;2022-12-07T05:30:39;23.80;;;15.30;;
62037;SDS011;47991;42.974;12.082;2022-12-07T05:33:06;31.90;;;17.60;;
62037;SDS011;47991;42.974;12.082;2022-12-07T05:35:33;23.30;;;17.00;;
62037;SDS011;47991;42.974;12.082;2022-12-07T05:38:00;24.90;;;16.00;;
62037;SDS011;47991;42.974;12.082;2022-12-07T05:40:26;25.00;;;16.70;;
62037;SDS011;47991;42.974;12.082;2022-12-07T05:42:53;24.00;;;16.30;;
62037;SDS011;47991;42.974;12.082;2022-12-07T05:45:19;25.10;;;16.90;;
62037;SDS011;47991;42.974;12.082;2022-12-07T05:47:46;25.20;;;17.10;;
62037;SDS011;47991;42.974;12.082;2022-12-07T05:50:13;23.90;;;16.70;;
62037;SDS011;47991;42.974;12.082;2022-12-07T05:52:40;20.60;;;15.00;;
62037;SDS011;47991;42.974;12.082;2022-12-07T05:55:07;22.90;;;14.40;;
62037;SDS011;47991;42.974;12.082;2022-12-07T05:57:33;26.50;;;15.40;;
62037;SDS011;47991;42.974;12.082;2022-12-07T06:00:00;23.60;;;15.60;;
62037;SDS011;47991;42.974;12.082;2022-12-07T06:02:27;22.60;;;16.00;;
62037;SDS011;47991;42.974;12.082;2022-12-07T06:04:54;27.30;;;16.80;;
62037;SDS011;47991;42.974;12.082;2022-12-07T06:07:20;23.60;;;16.20;;
62037;SDS011;47991;42.974;12.082;2022-12-07T06:09:47;27.50;;;15.80;;
62037;SDS011;47991;42.974;12.082;2022-12-07T06:12:13;22.00;;;14.50;;
62037;SDS011;47991;42.974;12.082;2022-12-07T06:14:59;23.60;;;15.90;;
62037;SDS011;47991;42.974;12.082;2022-12-07T06:17:26;24.90;;;15.90;;
62037;SDS011;47991;42.974;12.082;2022-12-07T06:19:52;23.70;;;16.50;;
62037;SDS011;47991;42.974;12.082;2022-12-07T06:22:19;24.90;;;15.90;;
62037;SDS011;47991;42.974;12.082;2022-12-07T06:24:46;23.20;;;15.90;;
62037;SDS011;47991;42.974;12.082;2022-12-07T06:27:13;21.60;;;15.30;;
62037;SDS011;47991;42.974;12.082;2022-12-07T06:29:41;21.30;;;14.90;;
62037;SDS011;47991;42.974;12.082;2022-12-07T06:32:07;27.50;;;15.80;;
62037;SDS011;47991;42.974;12.082;2022-12-07T06:34:34;23.60;;;15.80;;
62037;SDS011;47991;42.974;12.082;2022-12-07T06:37:01;21.90;;;14.70;;
62037;SDS011;47991;42.974;12.082;2022-12-07T06:39:28;27.50;;;15.80;;
62037;SDS011;47991;42.974;12.082;2022-12-07T06:41:55;23.30;;;14.40;;
62037;SDS011;47991;42.974;12.082;2022-12-07T06:44:23;24.10;;;13.90;;
62037;SDS011;47991;42.974;12.082;2022-12-07T06:46:50;26.00;;;16.20;;
62037;SDS011;47991;42.974;12.082;2022-12-07T06:49:17;25.70;;;14.90;;
62037;SDS011;47991;42.974;12.082;2022-12-07T06:51:44;27.10;;;15.50;;
62037;SDS011;47991;42.974;12.082;2022-12-07T06:54:11;23.90;;;14.60;;
62037;SDS011;47991;42.974;12.082;2022-12-07T06:56:39;23.00;;;15.80;;
62037;SDS011;47991;42.974;12.082;2022-12-07T06:59:06;22.80;;;15.50;;
62037;SDS011;47991;42.974;12.082;2022-12-07T07:01:33;25.80;;;16.10;;
62037;SDS011;47991;42.974;12.082;2022-12-07T07:04:01;25.50;;;15.70;;
62037;SDS011;47991;42.974;12.082;2022-12-07T07:06:27;24.20;;;15.60;;
62037;SDS011;47991;42.974;12.082;2022-12-07T07:08:54;24.50;;;15.50;;
62037;SDS011;47991;42.974;12.082;2022-12-07T07:11:21;22.60;;;14.40;;
62037;SDS011;47991;42.974;12.082;2022-12-07T07:13:47;19.80;;;13.80;;
62037;SDS011;47991;42.974;12.082;2022-12-07T07:16:14;20.40;;;14.50;;
62037;SDS011;47991;42.974;12.082;2022-12-07T07:18:41;23.80;;;15.00;;
62037;SDS011;47991;42.974;12.082;2022-12-07T07:21:08;24.00;;;15.70;;
62037;SDS011;47991;42.974;12.082;2022-12-07T07:23:34;21.50;;;15.50;;
62037;SDS011;47991;42.974;12.082;2022-12-07T07:26:01;22.70;;;15.90;;
62037;SDS011;47991;42.974;12.082;2022-12-07T07:28:27;21.70;;;16.20;;
62037;SDS011;47991;42.974;12.082;2022-12-07T07:30:54;23.40;;;15.70;;
62037;SDS011;47991;42.974;12.082;2022-12-07T07:33:21;23.80;;;17.00;;
62037;SDS011;47991;42.974;12.082;2022-12-07T07:35:48;24.40;;;17.00;;
62037;SDS011;47991;42.974;12.082;2022-12-07T07:38:14;22.10;;;16.70;;
62037;SDS011;47991;42.974;12.082;2022-12-07T07:40:41;21.90;;;16.40;;
62037;SDS011;47991;42.974;12.082;2022-12-07T07:43:07;24.30;;;16.10;;
62037;SDS011;47991;42.974;12.082;2022-12-07T07:45:34;20.40;;;15.80;;
62037;SDS011;47991;42.974;12.082;2022-12-07T07:48:02;22.40;;;16.00;;
62037;SDS011;47991;42.974;12.082;2022-12-07T07:50:28;25.20;;;16.50;;
62037;SDS011;47991;42.974;12.082;2022-12-07T07:52:56;22.80;;;16.00;;
62037;SDS011;47991;42.974;12.082;2022-12-07T07:55:23;26.20;;;17.10;;
62037;SDS011;47991;42.974;12.082;2022-12-07T07:57:50;24.00;;;17.00;;
62037;SDS011;47991;42.974;12.082;2022-12-07T08:00:16;22.20;;;15.00;;
62037;SDS011;47991;42.974;12.082;2022-12-07T08:02:43;21.20;;;14.00;;
62037;SDS011;47991;42.974;12.082;2022-12-07T08:05:10;22.50;;;15.20;;
62037;SDS011;47991;42.974;12.082;2022-12-07T08:07:38;19.90;;;13.10;;
62037;SDS011;47991;42.974;12.082;2022-12-07T08:10:05;18.20;;;10.80;;
62037;SDS011;47991;42.974;12.082;2022-12-07T08:12:35;20.20;;;12.10;;
62037;SDS011;47991;42.974;12.082;2022-12-07T08:15:03;19.30;;;12.60;;
62037;SDS011;47991;42.974;12.082;2022-12-07T08:17:30;20.00;;;11.90;;
62037;SDS011;47991;42.974;12.082;2022-12-07T08:19:57;25.60;;;13.40;;
62037;SDS011;47991;42.974;12.082;2022-12-07T08:22:23;22.80;;;12.70;;
62037;SDS011;47991;42.974;12.082;2022-12-07T08:24:50;19.40;;;12.30;;
62037;SDS011;47991;42.974;12.082;2022-12-07T08:27:17;19.50;;;12.60;;
62037;SDS011;47991;42.974;12.082;2022-12-07T08:29:43;19.40;;;13.20;;
62037;SDS011;47991;42.974;12.082;2022-12-07T08:32:10;22.20;;;12.50;;
62037;SDS011;47991;42.974;12.082;2022-12-07T08:34:36;20.20;;;12.70;;
62037;SDS011;47991;42.974;12.082;2022-12-07T08:37:03;19.60;;;11.00;;
62037;SDS011;47991;42.974;12.082;2022-12-07T08:39:29;20.30;;;12.60;;
62037;SDS011;47991;42.974;12.082;2022-12-07T08:41:56;20.50;;;10.50;;
62037;SDS011;47991;42.974;12.082;2022-12-07T08:44:22;19.90;;;10.80;;
62037;SDS011;47991;42.974;12.082;2022-12-07T08:46:50;20.00;;;12.50;;
62037;SDS011;47991;42.974;12.082;2022-12-07T08:49:24;18.40;;;11.10;;
62037;SDS011;47991;42.974;12.082;2022-12-07T08:51:57;23.90;;;12.40;;
62037;SDS011;47991;42.974;12.082;2022-12-07T08:54:23;19.70;;;11.80;;
62037;SDS011;47991;42.974;12.082;2022-12-07T08:56:50;19.40;;;11.80;;
62037;SDS011;47991;42.974;12.082;2022-12-07T08:59:18;19.30;;;10.40;;
62037;SDS011;47991;42.974;12.082;2022-12-07T09:01:46;17.20;;;10.60;;
62037;SDS011;47991;42.974;12.082;2022-12-07T09:04:13;21.30;;;10.90;;
62037;SDS011;47991;42.974;12.082;2022-12-07T09:06:40;20.50;;;12.30;;
62037;SDS011;47991;42.974;12.082;2022-12-07T09:21:43;21.20;;;11.80;;
62037;SDS011;47991;42.974;12.082;2022-12-07T09:24:11;18.60;;;10.80;;
62037;SDS011;47991;42.974;12.082;2022-12-07T09:26:39;27.20;;;11.60;;
62037;SDS011;47991;42.974;12.082;2022-12-07T09:29:06;24.10;;;11.10;;
62037;SDS011;47991;42.974;12.082;2022-12-07T09:31:35;20.00;;;11.10;;
62037;SDS011;47991;42.974;12.082;2022-12-07T09:34:03;23.10;;;9.90;;
62037;SDS011;47991;42.974;12.082;2022-12-07T09:36:32;17.80;;;10.20;;
62037;SDS011;47991;42.974;12.082;2022-12-07T09:38:59;22.00;;;12.40;;
62037;SDS011;47991;42.974;12.082;2022-12-07T09:41:27;17.40;;;11.40;;
62037;SDS011;47991;42.974;12.082;2022-12-07T09:44:10;18.20;;;10.80;;
62037;SDS011;47991;42.974;12.082;2022-12-07T09:46:41;16.70;;;9.70;;
62037;SDS011;47991;42.974;12.082;2022-12-07T09:49:14;18.60;;;9.50;;
62037;SDS011;47991;42.974;12.082;2022-12-07T09:51:44;19.80;;;10.00;;
62037;SDS011;47991;42.974;12.082;2022-12-07T09:54:12;20.20;;;9.30;;
62037;SDS011;47991;42.974;12.082;2022-12-07T09:56:42;18.80;;;9.10;;
62037;SDS011;47991;42.974;12.082;2022-12-07T09:59:13;18.40;;;9.70;;
62037;SDS011;47991;42.974;12.082;2022-12-07T10:01:48;19.90;;;10.20;;
62037;SDS011;47991;42.974;12.082;2022-12-07T10:06:50;20.20;;;10.60;;
62037;SDS011;47991;42.974;12.082;2022-12-07T10:09:19;19.50;;;9.90;;
62037;SDS011;47991;42.974;12.082;2022-12-07T10:14:33;17.30;;;10.00;;
62037;SDS011;47991;42.974;12.082;2022-12-07T10:19:32;17.90;;;10.00;;
62037;SDS011;47991;42.974;12.082;2022-12-07T10:22:15;18.10;;;10.50;;
62037;SDS011;47991;42.974;12.082;2022-12-07T10:24:43;15.80;;;8.10;;
62037;SDS011;47991;42.974;12.082;2022-12-07T10:27:20;18.80;;;9.90;;
62037;SDS011;47991;42.974;12.082;2022-12-07T10:29:52;17.40;;;9.30;;
62037;SDS011;47991;42.974;12.082;2022-12-07T10:34:46;18.00;;;10.50;;
62037;SDS011;47991;42.974;12.082;2022-12-07T10:42:16;18.10;;;10.40;;
62037;SDS011;47991;42.974;12.082;2022-12-07T10:45:17;16.40;;;9.70;;
62037;SDS011;47991;42.974;12.082;2022-12-07T10:53:01;23.40;;;11.50;;
62037;SDS011;47991;42.974;12.082;2022-12-07T11:04:43;23.20;;;11.50;;
62037;SDS011;47991;42.974;12.082;2022-12-07T11:07:42;18.60;;;10.20;;
62037;SDS011;47991;42.974;12.082;2022-12-07T11:13:16;23.50;;;10.80;;
62037;SDS011;47991;42.974;12.082;2022-12-07T11:15:55;23.60;;;10.80;;
62037;SDS011;47991;42.974;12.082;2022-12-07T11:21:06;15.80;;;9.40;;
62037;SDS011;47991;42.974;12.082;2022-12-07T11:26:15;15.50;;;9.70;;
62037;SDS011;47991;42.974;12.082;2022-12-07T11:28:54;18.90;;;10.60;;
62037;SDS011;47991;42.974;12.082;2022-12-07T11:34:31;17.60;;;10.70;;
62037;SDS011;47991;42.974;12.082;2022-12-07T11:37:01;24.80;;;11.10;;
62037;SDS011;47991;42.974;12.082;2022-12-07T11:39:39;16.90;;;9.80;;
62037;SDS011;47991;42.974;12.082;2022-12-07T11:42:25;15.40;;;10.10;;
62037;SDS011;47991;42.974;12.082;2022-12-07T11:48:14;17.60;;;11.00;;
62037;SDS011;47991;42.974;12.082;2022-12-07T11:50:55;23.40;;;12.40;;
62037;SDS011;47991;42.974;12.082;2022-12-07T11:53:26;18.20;;;12.20;;
62037;SDS011;47991;42.974;12.082;2022-12-07T11:59:07;20.50;;;12.80;;
62037;SDS011;47991;42.974;12.082;2022-12-07T12:01:42;21.90;;;11.50;;
62037;SDS011;47991;42.974;12.082;2022-12-07T12:04:23;22.30;;;13.30;;
62037;SDS011;47991;42.974;12.082;2022-12-07T12:06:57;21.30;;;13.30;;
62037;SDS011;47991;42.974;12.082;2022-12-07T12:09:32;24.00;;;12.50;;
62037;SDS011;47991;42.974;12.082;2022-12-07T12:25:54;23.90;;;13.30;;
62037;SDS011;47991;42.974;12.082;2022-12-07T12:36:20;20.20;;;11.50;;
62037;SDS011;47991;42.974;12.082;2022-12-07T12:38:51;17.70;;;12.10;;
62037;SDS011;47991;42.974;12.082;2022-12-07T12:46:54;18.40;;;12.20;;
62037;SDS011;47991;42.974;12.082;2022-12-07T12:49:33;16.20;;;11.10;;
62037;SDS011;47991;42.974;12.082;2022-12-07T12:55:11;19.20;;;10.80;;
62037;SDS011;47991;42.974;12.082;2022-12-07T12:57:43;17.60;;;11.40;;
62037;SDS011;47991;42.974;12.082;2022-12-07T13:00:21;19.20;;;11.40;;
62037;SDS011;47991;42.974;12.082;2022-12-07T13:02:54;21.30;;;11.10;;
62037;SDS011;47991;42.974;12.082;2022-12-07T13:05:24;19.60;;;11.50;;
62037;SDS011;47991;42.974;12.082;2022-12-07T13:10:37;20.50;;;11.00;;
62037;SDS011;47991;42.974;12.082;2022-12-07T13:18:40;18.00;;;11.90;;
62037;SDS011;47991;42.974;12.082;2022-12-07T13:26:16;15.30;;;9.40;;
62037;SDS011;47991;42.974;12.082;2022-12-07T13:39:55;21.50;;;13.00;;
62037;SDS011;47991;42.974;12.082;2022-12-07T13:42:25;28.50;;;15.10;;
62037;SDS011;47991;42.974;12.082;2022-12-07T13:45:00;21.40;;;14.00;;
62037;SDS011;47991;42.974;12.082;2022-12-07T13:47:44;27.10;;;15.90;;
62037;SDS011;47991;42.974;12.082;2022-12-07T13:50:29;24.20;;;15.90;;
62037;SDS011;47991;42.974;12.082;2022-12-07T13:52:59;25.10;;;16.30;;
62037;SDS011;47991;42.974;12.082;2022-12-07T13:55:27;23.50;;;15.90;;
62037;SDS011;47991;42.974;12.082;2022-12-07T13:57:55;26.00;;;15.80;;
62037;SDS011;47991;42.974;12.082;2022-12-07T14:00:23;23.90;;;15.40;;
62037;SDS011;47991;42.974;12.082;2022-12-07T14:05:34;23.60;;;15.50;;
62037;SDS011;47991;42.974;12.082;2022-12-07T14:08:06;21.00;;;13.90;;
62037;SDS011;47991;42.974;12.082;2022-12-07T14:15:55;24.30;;;15.90;;
62037;SDS011;47991;42.974;12.082;2022-12-07T14:18:36;24.60;;;16.80;;
62037;SDS011;47991;42.974;12.082;2022-12-07T14:21:05;21.20;;;16.40;;
62037;SDS011;47991;42.974;12.082;2022-12-07T14:23:42;23.80;;;16.50;;
62037;SDS011;47991;42.974;12.082;2022-12-07T14:26:18;21.70;;;15.10;;
62037;SDS011;47991;42.974;12.082;2022-12-07T14:28:46;24.70;;;15.30;;
62037;SDS011;47991;42.974;12.082;2022-12-07T14:31:15;25.90;;;16.60;;
62037;SDS011;47991;42.974;12.082;2022-12-07T14:33:44;24.00;;;17.10;;
62037;SDS011;47991;42.974;12.082;2022-12-07T14:36:13;25.80;;;17.00;;
62037;SDS011;47991;42.974;12.082;2022-12-07T14:38:40;22.50;;;15.90;;
62037;SDS011;47991;42.974;12.082;2022-12-07T14:41:12;22.60;;;14.80;;
62037;SDS011;47991;42.974;12.082;2022-12-07T14:44:12;23.10;;;15.50;;
62037;SDS011;47991;42.974;12.082;2022-12-07T14:46:41;25.00;;;15.80;;
62037;SDS011;47991;42.974;12.082;2022-12-07T14:49:08;21.10;;;14.00;;
62037;SDS011;47991;42.974;12.082;2022-12-07T14:51:35;20.40;;;14.90;;
62037;SDS011;47991;42.974;12.082;2022-12-07T14:54:06;21.20;;;13.40;;
62037;SDS011;47991;42.974;12.082;2022-12-07T14:56:38;22.40;;;13.70;;
62037;SDS011;47991;42.974;12.082;2022-12-07T14:59:05;22.20;;;13.00;;
62037;SDS011;47991;42.974;12.082;2022-12-07T15:01:31;25.70;;;13.50;;
62037;SDS011;47991;42.974;12.082;2022-12-07T15:03:58;19.30;;;12.60;;
62037;SDS011;47991;42.974;12.082;2022-12-07T15:06:26;20.80;;;12.20;;
62037;SDS011;47991;42.974;12.082;2022-12-07T15:08:53;18.00;;;11.30;;
62037;SDS011;47991;42.974;12.082;2022-12-07T15:11:21;19.40;;;11.10;;
62037;SDS011;47991;42.974;12.082;2022-12-07T15:13:47;15.90;;;11.30;;
62037;SDS011;47991;42.974;12.082;2022-12-07T15:16:33;21.40;;;13.10;;
62037;SDS011;47991;42.974;12.082;2022-12-07T15:19:01;20.50;;;11.60;;
62037;SDS011;47991;42.974;12.082;2022-12-07T15:21:28;15.80;;;10.80;;
62037;SDS011;47991;42.974;12.082;2022-12-07T15:23:54;17.30;;;12.10;;
62037;SDS011;47991;42.974;12.082;2022-12-07T15:26:21;17.90;;;13.40;;
62037;SDS011;47991;42.974;12.082;2022-12-07T15:28:48;19.40;;;13.00;;
62037;SDS011;47991;42.974;12.082;2022-12-07T15:31:15;19.90;;;12.50;;
62037;SDS011;47991;42.974;12.082;2022-12-07T15:33:43;20.60;;;12.60;;
62037;SDS011;47991;42.974;12.082;2022-12-07T15:36:18;18.30;;;10.80;;
62037;SDS011;47991;42.974;12.082;2022-12-07T15:38:47;17.00;;;12.30;;
62037;SDS011;47991;42.974;12.082;2022-12-07T15:41:14;17.70;;;11.40;;
62037;SDS011;47991;42.974;12.082;2022-12-07T15:43:41;16.80;;;11.70;;
62037;SDS011;47991;42.974;12.082;2022-12-07T15:46:34;16.60;;;11.50;;
62037;SDS011;47991;42.974;12.082;2022-12-07T15:49:10;19.20;;;10.90;;
62037;SDS011;47991;42.974;12.082;2022-12-07T15:51:45;16.30;;;10.90;;
62037;SDS011;47991;42.974;12.082;2022-12-07T15:54:19;21.00;;;9.80;;
62037;SDS011;47991;42.974;12.082;2022-12-07T15:56:48;13.90;;;7.70;;
62037;SDS011;47991;42.974;12.082;2022-12-07T15:59:15;18.90;;;9.80;;
62037;SDS011;47991;42.974;12.082;2022-12-07T16:01:42;14.20;;;8.50;;
62037;SDS011;47991;42.974;12.082;2022-12-07T16:04:09;15.00;;;9.60;;
62037;SDS011;47991;42.974;12.082;2022-12-07T16:06:36;18.90;;;9.30;;
62037;SDS011;47991;42.974;12.082;2022-12-07T16:09:03;14.30;;;8.30;;
62037;SDS011;47991;42.974;12.082;2022-12-07T16:11:30;13.10;;;7.30;;
62037;SDS011;47991;42.974;12.082;2022-12-07T16:13:57;12.10;;;7.20;;
62037;SDS011;47991;42.974;12.082;2022-12-07T16:16:24;11.70;;;6.30;;
62037;SDS011;47991;42.974;12.082;2022-12-07T16:18:50;11.70;;;7.50;;
62037;SDS011;47991;42.974;12.082;2022-12-07T16:21:18;9.60;;;5.70;;
62037;SDS011;47991;42.974;12.082;2022-12-07T16:23:45;9.70;;;6.30;;
62037;SDS011;47991;42.974;12.082;2022-12-07T16:26:16;13.00;;;7.10;;
62037;SDS011;47991;42.974;12.082;2022-12-07T16:28:45;11.10;;;5.80;;
62037;SDS011;47991;42.974;12.082;2022-12-07T16:31:15;15.50;;;5.60;;
62037;SDS011;47991;42.974;12.082;2022-12-07T16:33:43;10.50;;;5.90;;
62037;SDS011;47991;42.974;12.082;2022-12-07T16:36:11;9.30;;;5.60;;
62037;SDS011;47991;42.974;12.082;2022-12-07T16:38:40;10.50;;;5.70;;
62037;SDS011;47991;42.974;12.082;2022-12-07T16:41:06;12.40;;;6.50;;
62037;SDS011;47991;42.974;12.082;2022-12-07T16:43:34;10.90;;;6.10;;
62037;SDS011;47991;42.974;12.082;2022-12-07T16:46:01;13.30;;;7.60;;
62037;SDS011;47991;42.974;12.082;2022-12-07T16:48:28;15.60;;;8.00;;
62037;SDS011;47991;42.974;12.082;2022-12-07T16:50:55;15.20;;;7.70;;
62037;SDS011;47991;42.974;12.082;2022-12-07T16:53:23;11.00;;;6.20;;
62037;SDS011;47991;42.974;12.082;2022-12-07T16:55:50;10.90;;;5.50;;
62037;SDS011;47991;42.974;12.082;2022-12-07T16:58:17;12.10;;;5.70;;
62037;SDS011;47991;42.974;12.082;2022-12-07T17:00:44;6.70;;;3.30;;
62037;SDS011;47991;42.974;12.082;2022-12-07T17:03:11;15.90;;;4.20;;